Latest Coastal Weather Observations for Gunn Point

IDD60701

Issued at 6:05 pm CST Monday 21 April 2014 (issued every 10 minutes, with the page automatically refreshed every 10 minutes)

About coastal observations | Map of coastal stations | Coastal observations for NT | Marine services | Other Formats
Station Details ID: 014023 Name: GUNN POINT Lat: -12.25 Lon: 131.04 Height: 25.0 m
Data from the previous 72 hours. | See also: Recent months for locations in Northern Territory
Date/Time
CST
Temp

°C
Wind Pressure Rain
since 9am
mm
Weather Cloud Vis
km
Sea
Height
m
Swell
Dir
 
Speed
knots
Gust
knots
hPa Trend Height
m
Period
s
Dir
21/06:00pm 28.5 NE 2 2 1009.1 - 0.0 - - - - - - -
21/05:30pm 29.5 ENE 2 4 1008.9 - 0.0 - - - - - - -
21/05:00pm 30.4 NE 4 7 1008.7 - 0.0 - - - - - - -
21/04:30pm 31.7 ENE 5 9 1008.4 - 0.0 - - - - - - -
21/04:00pm 32.1 ENE 4 8 1008.7 - 0.0 - - - - - - -
21/03:30pm 32.3 ENE 6 10 1008.4 - 0.0 - - - - - - -
21/03:00pm 32.5 E 5 9 1008.3 - 0.0 - - - - - - -
21/02:30pm 32.0 E 5 10 1008.5 - 0.0 - - - - - - -
21/02:00pm 31.7 ENE 7 12 1009.2 - 0.0 - - - - - - -
21/01:30pm 31.3 ENE 8 14 1009.3 - 0.0 - - - - - - -
21/01:00pm 31.1 E 7 13 1009.7 - 0.0 - - - - - - -
21/12:30pm 31.1 E 8 14 1009.7 - 0.0 - - - - - - -
21/12:00pm 30.3 E 9 16 1010.1 - 0.0 - - - - - - -
21/11:30am 30.9 E 8 17 1010.4 - 0.0 - - - - - - -
21/11:00am 30.5 E 9 16 1010.9 - 0.0 - - - - - - -
21/10:30am 29.9 E 7 16 1010.9 - 0.0 - - - - - - -
21/10:00am 28.9 ESE 6 13 1011.0 - 0.0 - - - - - - -
21/09:30am 28.0 E 7 11 1010.6 - 0.0 - - - - - - -
21/09:00am 27.8 ESE 4 8 1010.6 - 2.0 - - - - - - -
21/08:30am 26.3 ESE 3 7 1010.4 - 2.0 - - - - - - -
21/08:00am 24.5 ESE 2 4 1010.5 - 2.0 - - - - - - -
21/07:30am 22.8 SE 2 3 1010.0 - 2.0 - - - - - - -
21/07:00am 22.1 ESE 2 3 1010.0 - 2.0 - - - - - - -
21/06:30am 22.3 ESE 2 3 1009.5 - 1.8 - - - - - - -
21/06:00am 22.1 ESE 2 4 1009.1 - 1.8 - - - - - - -
21/05:30am 21.9 CALM 0 0 1009.0 - 1.8 - - - - - - -
21/05:00am 22.3 CALM 0 2 1009.0 - 1.8 - - - - - - -
21/04:30am 22.7 SE 2 3 1008.9 - 1.8 - - - - - - -
21/04:00am 22.7 ESE 2 3 1009.1 - 1.8 - - - - - - -
21/03:30am 22.9 SE 2 3 1009.0 - 1.8 - - - - - - -
21/03:00am 22.9 CALM 0 0 1008.9 - 1.8 - - - - - - -
21/02:30am 23.3 CALM 0 0 1009.0 - 1.8 - - - - - - -
21/02:00am 23.7 CALM 0 0 1009.6 - 1.8 - - - - - - -
21/01:30am 24.1 CALM 0 0 1009.6 - 1.8 - - - - - - -
21/01:00am 24.7 ESE 2 4 1010.0 - 1.8 - - - - - - -
21/12:30am 25.1 CALM 0 0 1010.1 - 1.8 - - - - - - -
21/12:00am 25.2 ENE 0 2 1010.3 - 1.8 Recent precip. - - - - - -
 
Date/Time
CST
Temp

°C
Wind Pressure Rain
since 9am
mm
Weather Cloud Vis
km
Sea
Height
m
Swell
Dir
 
Speed
knots
Gust
knots
hPa Trend Height
m
Period
s
Dir
20/11:30pm 25.3 ENE 6 12 1010.4 - 1.8 - - - - - - -
20/11:00pm 25.5 E 5 9 1010.4 - 0.2 - - - - - - -
20/10:30pm 24.7 ENE 1 3 1009.9 - 0.2 - - - - - - -
20/10:00pm 24.2 CALM 0 0 1010.2 - 0.2 - - - - - - -
20/09:30pm 24.4 CALM 0 0 1010.0 - 0.2 - - - - - - -
20/09:00pm 24.7 CALM 0 0 1009.7 - 0.2 - - - - - - -
20/08:30pm 25.0 CALM 0 2 1009.6 - 0.2 - - - - - - -
20/08:00pm 25.4 CALM 0 0 1009.6 - 0.2 - - - - - - -
20/07:30pm 26.0 CALM 0 0 1009.1 - 0.2 - - - - - - -
20/07:00pm 26.9 CALM 0 0 1009.1 - 0.2 - - - - - - -
20/06:30pm 28.4 NE 1 4 1008.6 - 0.2 - - - - - - -
20/06:00pm 29.9 NE 4 7 1008.4 - 0.2 - - - - - - -
20/05:30pm 30.9 NNE 3 6 1008.0 - 0.2 - - - - - - -
20/05:00pm 31.6 NE 4 7 1007.9 - 0.2 - - - - - - -
20/04:30pm 32.4 ENE 6 8 1007.4 - 0.2 - - - - - - -
20/04:00pm 32.4 ENE 5 9 1007.4 - 0.2 - - - - - - -
20/03:30pm 32.4 ENE 6 10 1007.3 - 0.2 - - - - - - -
20/03:00pm 32.4 E 5 12 1007.4 - 0.2 - - - - - - -
20/02:30pm 33.7 E 5 13 1007.6 - 0.2 - - - - - - -
20/02:00pm 33.0 ESE 5 10 1008.3 - 0.2 - - - - - - -
20/01:30pm 32.5 E 7 12 1008.6 - 0.2 - - - - - - -
20/01:00pm 32.2 ENE 7 12 1009.1 - 0.2 - - - - - - -
20/12:30pm 31.7 E 9 13 1009.2 - 0.2 - - - - - - -
20/12:00pm 31.9 E 6 10 1009.6 - 0.2 - - - - - - -
20/11:30am 31.3 E 7 14 1010.0 - 0.2 - - - - - - -
20/11:00am 30.8 E 7 13 1010.8 - 0.2 - - - - - - -
20/10:30am 29.9 ESE 7 13 1010.9 - 0.2 - - - - - - -
20/10:00am 29.6 ESE 7 14 1011.2 - 0.0 - - - - - - -
20/09:30am 29.1 ESE 5 10 1010.7 - 0.0 - - - - - - -
20/09:00am 27.9 ESE 5 9 1010.5 - 0.2 - - - - - - -
20/08:30am 26.6 SE 4 7 1010.4 - 0.2 - - - - - - -
20/08:00am 25.1 ESE 3 6 1010.4 - 0.2 - - - - - - -
20/07:30am 23.1 ESE 3 4 1009.8 - 0.2 - - - - - - -
20/07:00am 22.1 ESE 2 3 1009.8 - 0.2 - - - - - - -
20/06:30am 22.3 ESE 2 3 1009.4 - 0.2 - - - - - - -
20/06:00am 22.5 ESE 2 4 1009.1 - 0.2 - - - - - - -
20/05:30am 22.4 ESE 2 4 1008.9 - 0.2 - - - - - - -
20/05:00am 22.4 SE 3 5 1008.9 - 0.2 - - - - - - -
20/04:30am 22.5 ESE 2 5 1008.9 - 0.2 - - - - - - -
20/04:00am 22.7 SE 4 6 1009.0 - 0.2 - - - - - - -
20/03:30am 22.8 SE 4 7 1008.5 - 0.2 - - - - - - -
20/03:00am 22.8 SSE 4 5 1008.8 - 0.2 - - - - - - -
20/02:30am 22.6 SSE 3 4 1008.9 - 0.2 - - - - - - -
20/02:00am 22.8 SE 2 3 1009.5 - 0.2 - - - - - - -
20/01:30am 22.7 SE 2 3 1009.5 - 0.2 - - - - - - -
20/01:00am 23.0 SE 2 3 1010.3 - 0.2 - - - - - - -
20/12:30am 23.6 E 3 5 1010.3 - 0.2 - - - - - - -
20/12:00am 24.0 E 4 6 1010.7 - 0.2 - - - - - - -
 
Date/Time
CST
Temp

°C
Wind Pressure Rain
since 9am
mm
Weather Cloud Vis
km
Sea
Height
m
Swell
Dir
 
Speed
knots
Gust
knots
hPa Trend Height
m
Period
s
Dir
19/11:30pm 24.6 E 7 13 1010.7 - 0.2 - - - - - - -
19/11:00pm 24.8 E 6 12 1011.3 - 0.2 - - - - - - -
19/10:30pm 25.0 E 7 12 1011.2 - 0.2 - - - - - - -
19/10:00pm 25.4 E 6 11 1011.2 - 0.2 - - - - - - -
19/09:30pm 25.4 E 7 13 1010.9 - 0.2 - - - - - - -
19/09:00pm 25.1 E 6 13 1010.5 - 0.2 - - - - - - -
19/08:30pm 24.3 E 2 4 1010.5 - 0.2 - - - - - - -
19/08:00pm 24.0 E 4 6 1010.4 - 0.2 - - - - - - -
19/07:30pm 24.4 ENE 6 10 1010.0 - 0.2 - - - - - - -
19/07:00pm 25.7 ESE 6 12 1009.8 - 0.0 - - - - - - -
19/06:30pm 28.5 SE 3 5 1008.8 - 0.0 - - - - - - -
19/06:00pm 29.6 NE 4 8 1008.4 - 0.0 - - - - - - -
19/05:30pm 30.4 NE 5 8 1007.8 - 0.0 - - - - - - -
19/05:00pm 31.0 NE 5 8 1007.8 - 0.0 - - - - - - -
19/04:30pm 31.8 NNE 5 10 1007.3 - 0.0 - - - - - - -
19/04:00pm 32.0 NE 7 11 1007.6 - 0.0 - - - - - - -
19/03:30pm 32.1 NE 5 10 1007.3 - 0.0 - - - - - - -
19/03:00pm 32.7 ENE 5 10 1007.3 - 0.0 - - - - - - -
19/02:30pm 32.6 ENE 6 12 1007.6 - 0.0 - - - - - - -
19/02:00pm 33.1 ENE 6 11 1008.2 - 0.0 - - - - - - -
19/01:30pm 32.6 ENE 8 12 1008.4 - 0.0 - - - - - - -
19/01:00pm 32.6 ENE 5 10 1009.1 - 0.0 - - - - - - -
19/12:30pm 31.5 E 8 14 1009.4 - 0.0 - - - - - - -
19/12:00pm 31.2 E 8 13 1010.0 - 0.0 - - - - - - -
19/11:30am 30.7 E 6 11 1010.7 - 0.0 - - - - - - -
19/11:00am 30.2 E 7 11 1011.3 - 0.0 - - - - - - -
19/10:30am 30.0 E 5 8 1011.3 - 0.0 - - - - - - -
19/10:00am 28.8 ESE 5 9 1011.6 - 0.0 - - - - - - -
19/09:30am 27.9 ESE 4 7 1011.3 - 0.0 - - - - - - -
19/09:00am 26.7 ESE 5 7 1011.3 - 11.4 - - - - - - -
19/08:30am 25.9 ESE 3 7 1011.2 - 11.4 - - - - - - -
19/08:00am 24.5 ESE 4 7 1011.4 - 11.4 - - - - - - -
19/07:30am 23.7 ESE 2 4 1011.1 - 11.4 - - - - - - -
19/07:00am 23.1 ESE 2 3 1011.0 - 11.4 - - - - - - -
19/06:30am 23.2 ESE 2 3 1010.7 - 11.4 - - - - - - -
19/06:00am 23.4 ESE 2 5 1010.5 - 11.4 Recent precip. - - - - - -
19/05:30am 23.4 ESE 3 5 1010.1 - 11.2 - - - - - - -
19/05:00am 23.3 SE 2 4 1010.3 - 11.2 - - - - - - -
19/04:30am 23.2 ESE 2 3 1010.0 - 11.2 - - - - - - -
19/04:00am 23.3 SE 2 4 1010.1 - 11.2 - - - - - - -
19/03:30am 23.5 S 2 3 1010.0 - 11.2 - - - - - - -
19/03:00am 23.4 E 2 5 1010.0 - 11.2 - - - - - - -
19/02:30am 23.6 E 2 3 1010.4 - 11.2 - - - - - - -
19/02:00am 23.6 ESE 2 3 1010.9 - 11.2 - - - - - - -
19/01:30am 23.6 ESE 2 4 1010.9 - 11.2 - - - - - - -
19/01:00am 23.7 ESE 2 4 1011.3 - 11.2 - - - - - - -
19/12:30am 23.8 ESE 4 6 1011.3 - 11.2 - - - - - - -
19/12:00am 23.8 ESE 2 4 1011.6 - 11.2 - - - - - - -
 
Date/Time
CST
Temp

°C
Wind Pressure Rain
since 9am
mm
Weather Cloud Vis
km
Sea
Height
m
Swell
Dir
 
Speed
knots
Gust
knots
hPa Trend Height
m
Period
s
Dir
18/11:30pm 23.9 ESE 3 6 1011.6 - 11.2 - - - - - - -
18/11:00pm 23.9 ESE 3 5 1012.0 - 11.2 - - - - - - -
18/10:30pm 23.9 ESE 2 4 1011.8 - 11.2 - - - - - - -
18/10:00pm 24.0 ESE 3 6 1011.8 - 11.2 - - - - - - -
18/09:30pm 24.2 ESE 3 7 1011.7 - 11.2 - - - - - - -
18/09:00pm 24.3 ESE 5 12 1012.1 - 11.0 - - - - - - -
18/08:30pm 24.5 ESE 4 8 1011.9 - 11.0 - - - - - - -
18/08:00pm 24.8 E 6 11 1011.7 - 11.0 - - - - - - -
18/07:30pm 24.9 E 3 5 1010.5 - 10.8 - - - - - - -
18/07:00pm 24.9 E 1 3 1010.6 - 10.8 - - - - - - -
18/06:30pm 24.9 CALM 0 0 1010.0 - 10.8 - - - - - - -

Other Formats:

Comma delimited format used in spreadsheet applications
http://www.bom.gov.au/fwo/IDD60701/IDD60701.99501.axf

JavaScript Object Notation format (JSON) in row-major order
http://www.bom.gov.au/fwo/IDD60701/IDD60701.99501.json